createdAt,value
2022-09-28T00:01:25.404Z,16.95
2022-09-28T00:03:55.102Z,17.01
2022-09-28T00:06:26.790Z,17.06
2022-09-28T00:08:54.801Z,17.09
2022-09-28T00:11:23.085Z,17.18
2022-09-28T00:13:52.245Z,17.21
2022-09-28T00:16:21.962Z,17.26
2022-09-28T00:18:51.515Z,17.29
2022-09-28T00:21:24.726Z,17.30
2022-09-28T00:24:15.875Z,17.29
2022-09-28T00:26:51.289Z,17.28
2022-09-28T00:29:32.447Z,17.27
2022-09-28T00:32:05.118Z,17.27
2022-09-28T00:34:37.855Z,17.30
2022-09-28T00:37:06.124Z,17.29
2022-09-28T00:39:35.793Z,17.31
2022-09-28T00:42:04.071Z,17.34
2022-09-28T00:44:36.328Z,17.31
2022-09-28T00:47:31.447Z,17.33
2022-09-28T00:50:20.925Z,17.32
2022-09-28T00:53:12.779Z,17.32
2022-09-28T00:55:42.432Z,17.28
2022-09-28T00:58:12.016Z,17.27
2022-09-28T01:00:42.767Z,17.31
2022-09-28T01:03:10.429Z,17.26
2022-09-28T01:05:46.720Z,17.30
2022-09-28T01:08:15.124Z,17.29
2022-09-28T01:10:45.983Z,17.29
2022-09-28T01:13:13.729Z,17.26
2022-09-28T01:15:59.696Z,17.28
2022-09-28T01:18:37.412Z,17.33
2022-09-28T01:21:20.877Z,17.33
2022-09-28T01:24:11.025Z,17.32
2022-09-28T01:26:48.046Z,17.38
2022-09-28T01:29:27.691Z,17.39
2022-09-28T01:32:07.284Z,17.38
2022-09-28T01:34:39.085Z,17.38
2022-09-28T01:37:10.279Z,17.34
2022-09-28T01:39:40.489Z,17.38
2022-09-28T01:42:14.755Z,17.39
2022-09-28T01:44:43.206Z,17.37
2022-09-28T01:47:12.037Z,17.36
2022-09-28T01:49:42.136Z,17.37
2022-09-28T01:52:28.043Z,17.42
2022-09-28T01:54:59.360Z,17.35
2022-09-28T01:57:36.245Z,17.44
2022-09-28T02:00:12.075Z,17.46
2022-09-28T02:03:12.725Z,17.44
2022-09-28T02:05:48.757Z,17.42
2022-09-28T02:08:27.096Z,17.44
2022-09-28T02:11:02.422Z,17.44
2022-09-28T02:13:32.234Z,17.48
2022-09-28T02:16:31.564Z,17.49
2022-09-28T02:18:59.239Z,17.47
2022-09-28T02:21:42.177Z,17.48
2022-09-28T02:24:21.416Z,17.47
2022-09-28T02:26:50.304Z,17.45
2022-09-28T02:29:18.327Z,17.41
2022-09-28T02:31:46.026Z,17.39
2022-09-28T02:34:13.790Z,17.33
2022-09-28T02:36:41.516Z,17.28
2022-09-28T02:39:17.099Z,17.23
2022-09-28T02:42:06.491Z,17.21
2022-09-28T02:45:02.937Z,17.21
2022-09-28T02:47:36.630Z,17.20
2022-09-28T02:50:16.391Z,17.27
2022-09-28T02:53:02.532Z,17.29
2022-09-28T02:55:58.087Z,17.29
2022-09-28T02:58:33.317Z,17.29
2022-09-28T03:01:25.549Z,17.35
2022-09-28T03:04:10.849Z,17.23
2022-09-28T03:06:47.628Z,17.27
2022-09-28T03:09:23.319Z,17.35
2022-09-28T03:11:53.789Z,17.37
2022-09-28T03:14:21.650Z,17.30
2022-09-28T03:16:56.317Z,17.36
2022-09-28T03:19:26.407Z,17.41
2022-09-28T03:21:55.350Z,17.39
2022-09-28T03:24:24.094Z,17.32
2022-09-28T03:26:51.656Z,17.29
2022-09-28T03:29:22.094Z,17.40
2022-09-28T03:31:56.569Z,17.41
2022-09-28T03:34:24.174Z,17.38
2022-09-28T03:36:52.289Z,17.36
2022-09-28T03:39:20.266Z,17.29
2022-09-28T03:41:47.777Z,17.23
2022-09-28T03:44:17.161Z,17.15
2022-09-28T03:46:46.728Z,17.06
2022-09-28T03:49:14.276Z,17.00
2022-09-28T03:51:41.831Z,16.96
2022-09-28T03:54:09.787Z,16.95
2022-09-28T03:56:38.035Z,16.92
2022-09-28T03:59:05.759Z,16.89
2022-09-28T04:01:33.492Z,16.90
2022-09-28T04:04:01.269Z,16.82
2022-09-28T04:06:28.804Z,16.73
2022-09-28T04:08:59.547Z,16.78
2022-09-28T04:11:30.042Z,16.78
2022-09-28T04:14:03.879Z,16.74
2022-09-28T04:16:32.023Z,16.61
2022-09-28T04:19:07.852Z,16.66
2022-09-28T04:21:55.580Z,16.58
2022-09-28T04:24:23.618Z,16.57
2022-09-28T04:26:52.159Z,16.58
2022-09-28T04:29:20.923Z,16.62
2022-09-28T04:31:56.898Z,16.62
2022-09-28T04:34:36.487Z,16.52
2022-09-28T04:37:06.533Z,16.56
2022-09-28T04:39:34.764Z,16.57
2022-09-28T04:42:02.625Z,16.55
2022-09-28T04:44:30.277Z,16.59
2022-09-28T04:47:05.198Z,16.51
2022-09-28T04:49:35.564Z,16.50
2022-09-28T04:52:17.215Z,16.49
2022-09-28T04:54:46.225Z,16.51
2022-09-28T04:57:13.857Z,16.52
2022-09-28T04:59:42.581Z,16.57
2022-09-28T05:02:11.036Z,16.61
2022-09-28T05:04:59.123Z,16.60
2022-09-28T05:07:27.085Z,16.51
2022-09-28T05:09:55.402Z,16.57
2022-09-28T05:12:23.356Z,16.40
2022-09-28T05:14:51.013Z,16.34
2022-09-28T05:17:20.424Z,16.27
2022-09-28T05:20:02.933Z,16.32
2022-09-28T05:22:30.858Z,16.35
2022-09-28T05:25:00.412Z,16.45
2022-09-28T05:27:32.480Z,16.51
2022-09-28T05:30:07.352Z,16.46
2022-09-28T05:33:04.728Z,16.60
2022-09-28T05:35:55.133Z,16.69
2022-09-28T05:38:24.607Z,16.83
2022-09-28T05:40:52.310Z,16.72
2022-09-28T05:43:20.095Z,16.31
2022-09-28T05:45:52.823Z,16.31
2022-09-28T05:48:23.238Z,16.21
2022-09-28T05:50:52.615Z,16.27
2022-09-28T05:53:20.884Z,16.26
2022-09-28T05:55:48.434Z,16.22
2022-09-28T05:58:16.905Z,16.23
2022-09-28T06:00:44.827Z,16.28
2022-09-28T06:03:13.892Z,16.26
2022-09-28T06:05:41.815Z,16.35
2022-09-28T06:08:11.723Z,16.43
2022-09-28T06:10:43.996Z,16.50
2022-09-28T06:13:12.238Z,16.48
2022-09-28T06:15:42.143Z,16.50
2022-09-28T06:18:15.045Z,16.53
2022-09-28T06:21:02.752Z,16.52
2022-09-28T06:23:36.674Z,16.52
2022-09-28T06:26:04.330Z,16.52
2022-09-28T06:28:32.073Z,16.49
2022-09-28T06:31:00.854Z,16.42
2022-09-28T06:33:30.297Z,16.44
2022-09-28T06:35:59.558Z,16.40
2022-09-28T06:38:27.403Z,16.48
2022-09-28T06:40:56.701Z,16.41
2022-09-28T06:43:24.734Z,16.25
2022-09-28T06:46:10.762Z,16.29
2022-09-28T06:48:38.357Z,16.27
2022-09-28T06:51:08.529Z,16.28
2022-09-28T06:53:55.565Z,16.24
2022-09-28T06:56:43.558Z,16.40
2022-09-28T06:59:11.189Z,16.29
2022-09-28T07:01:40.036Z,16.40
2022-09-28T07:04:20.435Z,16.42
2022-09-28T07:07:09.779Z,16.44
2022-09-28T07:10:11.868Z,16.54
2022-09-28T07:13:04.940Z,16.65
2022-09-28T07:15:43.476Z,16.53
2022-09-28T07:18:14.146Z,16.58
2022-09-28T07:20:52.795Z,16.51
2022-09-28T07:23:21.840Z,16.51
2022-09-28T07:26:12.231Z,16.54
2022-09-28T07:29:06.239Z,16.62
2022-09-28T07:32:05.885Z,16.56
2022-09-28T07:37:33.688Z,16.87
2022-09-28T07:40:20.425Z,16.84
2022-09-28T07:42:49.365Z,16.82
2022-09-28T07:45:17.585Z,16.69
2022-09-28T07:47:46.236Z,16.79
2022-09-28T07:50:28.568Z,16.91
2022-09-28T07:53:01.239Z,17.00
2022-09-28T07:55:32.356Z,17.05
2022-09-28T07:58:22.815Z,17.37
2022-09-28T08:01:12.005Z,17.51
2022-09-28T08:03:40.286Z,17.56
2022-09-28T08:06:09.991Z,17.60
2022-09-28T08:08:43.944Z,17.65
2022-09-28T08:11:15.988Z,17.72
2022-09-28T08:14:03.525Z,17.53
2022-09-28T08:17:04.517Z,17.48
2022-09-28T08:19:58.297Z,17.45
2022-09-28T08:22:26.060Z,17.41
2022-09-28T08:24:56.494Z,17.32
2022-09-28T08:27:24.138Z,17.58
2022-09-28T08:29:51.790Z,17.60
2022-09-28T08:32:48.880Z,17.64
2022-09-28T08:35:34.996Z,17.87
2022-09-28T08:38:16.710Z,18.02
2022-09-28T08:41:19.393Z,18.55
2022-09-28T08:44:24.181Z,18.74
2022-09-28T08:47:02.480Z,18.71
2022-09-28T08:49:47.394Z,18.81
2022-09-28T08:52:40.745Z,18.98
2022-09-28T08:55:37.992Z,19.08
2022-09-28T08:58:20.100Z,19.26
2022-09-28T09:00:49.636Z,19.06
2022-09-28T09:03:23.959Z,19.23
2022-09-28T09:06:29.960Z,19.22
2022-09-28T09:09:10.341Z,19.17
2022-09-28T09:12:04.884Z,19.10
2022-09-28T09:14:43.708Z,19.30
2022-09-28T09:17:21.449Z,19.56
2022-09-28T09:20:20.553Z,19.89
2022-09-28T09:22:59.118Z,19.76
2022-09-28T09:25:45.318Z,20.04
2022-09-28T09:28:48.157Z,20.00
2022-09-28T09:31:31.998Z,20.02
2022-09-28T09:34:15.519Z,19.79
2022-09-28T09:37:03.024Z,19.57
2022-09-28T09:39:58.102Z,19.64
2022-09-28T09:42:53.259Z,19.81
2022-09-28T09:46:00.299Z,19.86
2022-09-28T09:48:50.573Z,19.88
2022-09-28T09:51:32.275Z,19.94
2022-09-28T09:54:02.384Z,20.01
2022-09-28T09:56:39.753Z,20.00
2022-09-28T09:59:16.161Z,20.04
2022-09-28T10:02:22.061Z,20.04
2022-09-28T10:05:20.145Z,20.03
2022-09-28T10:07:57.453Z,20.03
2022-09-28T10:10:36.957Z,20.03
2022-09-28T10:13:10.311Z,20.01
2022-09-28T10:15:39.105Z,20.03
2022-09-28T10:18:30.132Z,20.14
2022-09-28T10:21:17.802Z,19.63
2022-09-28T10:24:47.660Z,19.83
2022-09-28T10:27:35.140Z,19.66
2022-09-28T10:30:24.535Z,19.44
2022-09-28T10:32:55.615Z,19.49
2022-09-28T10:35:25.952Z,19.37
2022-09-28T10:38:07.483Z,19.56
2022-09-28T10:41:11.219Z,19.50
2022-09-28T10:44:06.842Z,19.51
2022-09-28T10:46:44.348Z,19.54
2022-09-28T10:49:18.381Z,19.28
2022-09-28T10:51:56.732Z,19.36
2022-09-28T10:54:29.854Z,19.59
2022-09-28T10:56:59.501Z,19.80
2022-09-28T10:59:39.338Z,19.69
2022-09-28T11:02:37.970Z,19.65
2022-09-28T11:05:22.975Z,20.04
2022-09-28T11:07:55.568Z,20.22
2022-09-28T11:10:30.198Z,20.48
2022-09-28T11:13:04.579Z,20.17
2022-09-28T11:15:33.394Z,19.99
2022-09-28T11:18:20.189Z,19.80
2022-09-28T11:20:49.397Z,20.21
2022-09-28T11:23:26.888Z,20.10
2022-09-28T11:26:02.789Z,20.15
2022-09-28T11:28:36.059Z,20.29
2022-09-28T11:31:08.958Z,20.57
2022-09-28T11:34:01.154Z,20.15
2022-09-28T11:37:13.770Z,20.40
2022-09-28T11:39:50.927Z,20.38
2022-09-28T11:42:41.497Z,20.20
2022-09-28T11:45:27.872Z,20.22
2022-09-28T11:48:01.084Z,20.11
2022-09-28T11:50:36.075Z,20.22
2022-09-28T11:53:31.103Z,20.29
2022-09-28T11:56:31.439Z,20.23
2022-09-28T11:59:27.907Z,20.08
2022-09-28T12:02:13.686Z,20.00
2022-09-28T12:05:28.448Z,20.08
2022-09-28T12:08:02.494Z,20.34
2022-09-28T12:11:17.351Z,20.27
2022-09-28T12:14:27.734Z,20.03
2022-09-28T12:17:19.843Z,20.06
2022-09-28T12:20:04.112Z,20.12
2022-09-28T12:22:38.429Z,20.32
2022-09-28T12:25:06.864Z,20.19
2022-09-28T12:27:49.437Z,20.27
2022-09-28T12:30:21.525Z,20.04
2022-09-28T12:33:04.572Z,20.01
2022-09-28T12:35:45.128Z,19.99
2022-09-28T12:38:34.539Z,19.75
2022-09-28T12:41:13.746Z,19.83
2022-09-28T12:43:54.538Z,20.07
2022-09-28T12:46:37.064Z,20.26
2022-09-28T12:52:45.889Z,20.29
2022-09-28T12:55:50.124Z,19.85
2022-09-28T12:59:00.122Z,19.92
2022-09-28T13:01:40.205Z,20.15
2022-09-28T13:04:13.501Z,19.91
2022-09-28T13:06:49.702Z,19.98
2022-09-28T13:09:24.995Z,19.86
2022-09-28T13:12:04.270Z,19.64
2022-09-28T13:14:43.780Z,19.68
2022-09-28T13:17:20.663Z,19.54
2022-09-28T13:19:59.267Z,19.58
2022-09-28T13:22:44.422Z,19.46
2022-09-28T13:25:18.595Z,19.38
2022-09-28T13:27:48.642Z,19.03
2022-09-28T13:30:17.657Z,19.16
2022-09-28T13:32:47.701Z,19.12
2022-09-28T13:35:16.156Z,19.23
2022-09-28T13:37:43.708Z,19.29
2022-09-28T13:40:11.560Z,19.24
2022-09-28T13:42:42.570Z,19.17
2022-09-28T13:45:25.185Z,18.97
2022-09-28T13:48:13.069Z,18.78
2022-09-28T13:51:15.504Z,18.67
2022-09-28T13:54:01.356Z,18.58
2022-09-28T13:56:31.886Z,18.60
2022-09-28T13:59:29.993Z,18.44
2022-09-28T14:02:07.201Z,18.53
2022-09-28T14:04:54.287Z,18.59
2022-09-28T14:07:34.441Z,18.63
2022-09-28T14:10:21.158Z,18.84
2022-09-28T14:12:51.483Z,18.83
2022-09-28T14:15:31.484Z,18.81
2022-09-28T14:18:14.421Z,18.70
2022-09-28T14:20:47.942Z,18.56
2022-09-28T14:23:29.852Z,18.42
2022-09-28T14:26:15.052Z,18.29
2022-09-28T14:28:49.244Z,18.25
2022-09-28T14:31:25.560Z,18.32
2022-09-28T14:33:58.353Z,18.36
2022-09-28T14:36:56.548Z,18.26
2022-09-28T14:39:48.682Z,18.30
2022-09-28T14:42:18.410Z,18.24
2022-09-28T14:45:06.773Z,18.26
2022-09-28T14:47:38.028Z,18.25
2022-09-28T14:50:38.056Z,18.23
2022-09-28T14:53:06.650Z,18.19
2022-09-28T14:55:51.188Z,18.16
2022-09-28T14:58:27.645Z,18.02
2022-09-28T15:01:06.601Z,18.11
2022-09-28T15:03:34.558Z,18.05
2022-09-28T15:06:02.085Z,18.05
2022-09-28T15:08:38.721Z,18.01
2022-09-28T15:11:06.814Z,18.09
2022-09-28T15:13:34.309Z,17.92
2022-09-28T15:16:11.626Z,17.85
2022-09-28T15:19:04.632Z,17.84
2022-09-28T15:21:39.056Z,17.66
2022-09-28T15:24:28.977Z,17.64
2022-09-28T15:26:56.915Z,17.53
2022-09-28T15:29:27.296Z,17.46
2022-09-28T15:31:54.942Z,17.38
2022-09-28T15:34:48.752Z,17.34
2022-09-28T15:37:19.102Z,17.25
2022-09-28T15:39:48.341Z,17.14
2022-09-28T15:42:17.161Z,17.09
2022-09-28T15:45:26.815Z,16.99
2022-09-28T15:48:17.887Z,16.88
2022-09-28T15:51:03.933Z,16.74
2022-09-28T15:53:31.658Z,16.72
2022-09-28T15:56:01.319Z,16.68
2022-09-28T15:58:29.179Z,16.60
2022-09-28T16:01:25.419Z,16.55
2022-09-28T16:03:52.969Z,16.50
2022-09-28T16:06:20.763Z,16.47
2022-09-28T16:08:49.175Z,16.40
2022-09-28T16:11:28.006Z,16.38
2022-09-28T16:14:06.210Z,16.30
2022-09-28T16:16:42.149Z,16.24
2022-09-28T16:19:21.138Z,16.15
2022-09-28T16:21:48.762Z,16.10
2022-09-28T16:24:21.370Z,16.10
2022-09-28T16:26:49.417Z,16.00
2022-09-28T16:29:40.324Z,15.93
2022-09-28T16:32:26.680Z,15.85
2022-09-28T16:35:11.005Z,15.81
2022-09-28T16:37:42.834Z,15.76
2022-09-28T16:40:10.510Z,15.67
2022-09-28T16:42:45.522Z,15.66
2022-09-28T16:45:20.662Z,15.66
2022-09-28T16:47:53.079Z,15.62
2022-09-28T16:50:21.335Z,15.58
2022-09-28T16:53:31.690Z,15.53
2022-09-28T16:55:59.910Z,15.50
2022-09-28T16:58:28.979Z,15.50
2022-09-28T17:00:56.734Z,15.46
2022-09-28T17:03:24.671Z,15.46
2022-09-28T17:05:52.883Z,15.44
2022-09-28T17:08:22.429Z,15.37
2022-09-28T17:13:41.110Z,15.26
2022-09-28T17:16:13.593Z,15.21
2022-09-28T17:18:41.367Z,15.14
2022-09-28T17:21:27.044Z,15.08
2022-09-28T17:23:54.859Z,15.02
2022-09-28T17:26:31.716Z,14.93
2022-09-28T17:28:59.744Z,14.80
2022-09-28T17:31:27.928Z,14.68
2022-09-28T17:33:55.485Z,14.62
2022-09-28T17:36:23.304Z,14.53
2022-09-28T17:39:06.596Z,14.37
2022-09-28T17:41:34.871Z,14.33
2022-09-28T17:44:03.187Z,14.27
2022-09-28T17:46:41.776Z,14.19
2022-09-28T17:49:10.381Z,14.15
2022-09-28T17:51:38.145Z,14.08
2022-09-28T17:54:08.259Z,14.02
2022-09-28T17:56:36.300Z,14.06
2022-09-28T17:59:05.661Z,14.02
2022-09-28T18:01:34.843Z,14.07
2022-09-28T18:04:03.807Z,14.12
2022-09-28T18:06:33.835Z,14.19
2022-09-28T18:09:03.234Z,14.20
2022-09-28T18:11:31.679Z,14.24
2022-09-28T18:13:59.161Z,14.30
2022-09-28T18:16:28.950Z,14.33
2022-09-28T18:18:57.601Z,14.36
2022-09-28T18:21:25.778Z,14.39
2022-09-28T18:23:53.687Z,14.42
2022-09-28T18:26:21.330Z,14.44
2022-09-28T18:28:49.285Z,14.41
2022-09-28T18:31:19.266Z,14.43
2022-09-28T18:36:35.985Z,14.36
2022-09-28T18:39:03.694Z,14.34
2022-09-28T18:41:31.304Z,14.29
2022-09-28T18:44:01.679Z,14.17
2022-09-28T18:46:29.765Z,14.07
2022-09-28T18:48:57.609Z,13.98
2022-09-28T18:51:25.506Z,13.91
2022-09-28T18:53:55.083Z,13.86
2022-09-28T18:56:22.619Z,13.81
2022-09-28T18:58:51.758Z,13.74
2022-09-28T19:01:35.470Z,13.66
2022-09-28T19:04:05.194Z,13.60
2022-09-28T19:06:34.399Z,13.57
2022-09-28T19:09:02.622Z,13.49
2022-09-28T19:11:30.317Z,13.47
2022-09-28T19:13:57.877Z,13.49
2022-09-28T19:16:29.608Z,13.51
2022-09-28T19:18:57.799Z,13.44
2022-09-28T19:21:25.607Z,13.36
2022-09-28T19:23:55.535Z,13.36
2022-09-28T19:26:25.034Z,13.36
2022-09-28T19:28:52.804Z,13.34
2022-09-28T19:31:20.340Z,13.35
2022-09-28T19:33:48.280Z,13.35
2022-09-28T19:36:18.452Z,13.31
2022-09-28T19:38:46.972Z,13.24
2022-09-28T19:41:42.829Z,13.24
2022-09-28T19:44:25.727Z,13.12
2022-09-28T19:47:07.603Z,13.05
2022-09-28T19:49:38.427Z,12.97
2022-09-28T19:52:16.122Z,12.92
2022-09-28T19:54:57.885Z,12.98
2022-09-28T19:57:30.290Z,13.01
2022-09-28T20:00:01.971Z,13.05
2022-09-28T20:02:34.014Z,13.07
2022-09-28T20:05:01.673Z,13.05
2022-09-28T20:07:32.966Z,13.02
2022-09-28T20:10:01.181Z,12.97
2022-09-28T20:12:30.994Z,13.01
2022-09-28T20:14:58.627Z,13.03
2022-09-28T20:17:27.772Z,13.11
2022-09-28T20:19:55.351Z,13.18
2022-09-28T20:22:22.922Z,13.23
2022-09-28T20:24:50.476Z,13.30
2022-09-28T20:27:18.046Z,13.36
2022-09-28T20:29:45.543Z,13.41
2022-09-28T20:32:13.693Z,13.36
2022-09-28T20:34:41.317Z,13.36
2022-09-28T20:37:09.945Z,13.40
2022-09-28T20:39:40.444Z,13.42
2022-09-28T20:42:11.692Z,13.37
2022-09-28T20:44:40.077Z,13.35
2022-09-28T20:47:07.616Z,13.32
2022-09-28T20:49:35.279Z,13.27
2022-09-28T20:52:02.912Z,13.18
2022-09-28T20:54:31.170Z,13.08
2022-09-28T20:56:59.031Z,13.04
2022-09-28T20:59:27.856Z,12.97
2022-09-28T21:01:56.041Z,12.90
2022-09-28T21:04:24.333Z,12.80
2022-09-28T21:06:52.274Z,12.73
2022-09-28T21:09:19.823Z,12.64
2022-09-28T21:11:48.231Z,12.61
2022-09-28T21:14:16.019Z,12.56
2022-09-28T21:16:45.065Z,12.50
2022-09-28T21:19:12.654Z,12.48
2022-09-28T21:21:40.953Z,12.46
2022-09-28T21:24:08.481Z,12.38
2022-09-28T21:26:37.094Z,12.34
2022-09-28T21:29:11.124Z,12.29
2022-09-28T21:31:45.817Z,12.18
2022-09-28T21:34:14.552Z,12.15
2022-09-28T21:36:43.533Z,12.13
2022-09-28T21:39:11.470Z,12.06
2022-09-28T21:41:39.409Z,12.02
2022-09-28T21:44:08.619Z,11.98
2022-09-28T21:46:36.948Z,11.95
2022-09-28T21:49:06.490Z,11.98
2022-09-28T21:51:35.306Z,12.00
2022-09-28T21:54:02.856Z,12.08
2022-09-28T21:56:33.496Z,12.10
2022-09-28T21:59:01.470Z,12.14
2022-09-28T22:01:29.541Z,12.12
2022-09-28T22:03:57.333Z,12.06
2022-09-28T22:06:28.119Z,12.04
2022-09-28T22:08:56.957Z,12.00
2022-09-28T22:11:26.377Z,11.92
2022-09-28T22:13:58.442Z,11.89
2022-09-28T22:16:28.560Z,11.82
2022-09-28T22:18:57.021Z,11.77
2022-09-28T22:21:26.388Z,11.73
2022-09-28T22:23:53.930Z,11.68
2022-09-28T22:26:41.396Z,11.70
2022-09-28T22:29:09.345Z,11.73
2022-09-28T22:31:39.154Z,11.73
2022-09-28T22:34:08.326Z,11.78
2022-09-28T22:36:36.730Z,11.79
2022-09-28T22:39:04.684Z,11.80
2022-09-28T22:41:32.511Z,11.80
2022-09-28T22:44:00.253Z,11.87
2022-09-28T22:46:28.846Z,11.91
2022-09-28T22:48:57.630Z,11.95
2022-09-28T22:51:26.391Z,12.02
2022-09-28T22:53:53.981Z,12.10
2022-09-28T22:56:21.497Z,12.19
2022-09-28T22:58:49.225Z,12.24
2022-09-28T23:01:18.729Z,12.26
2022-09-28T23:03:46.566Z,12.29
2022-09-28T23:06:17.094Z,12.33
2022-09-28T23:08:45.488Z,12.35
2022-09-28T23:11:13.159Z,12.41
2022-09-28T23:13:43.451Z,12.47
2022-09-28T23:16:11.912Z,12.45
2022-09-28T23:18:42.264Z,12.48
2022-09-28T23:21:15.684Z,12.42
2022-09-28T23:23:44.025Z,12.39
2022-09-28T23:26:19.053Z,12.45
2022-09-28T23:28:47.089Z,12.41
2022-09-28T23:31:18.874Z,12.47
2022-09-28T23:33:46.700Z,12.48
2022-09-28T23:36:14.910Z,12.48
2022-09-28T23:38:42.826Z,12.54
2022-09-28T23:41:10.593Z,12.53
2022-09-28T23:43:38.439Z,12.42
2022-09-28T23:46:06.250Z,12.45
2022-09-28T23:48:34.080Z,12.50
2022-09-28T23:51:01.753Z,12.52
2022-09-28T23:53:29.770Z,12.47
2022-09-28T23:55:57.249Z,12.57
2022-09-28T23:58:25.843Z,12.60
